Terminal Aerodrome Forecast
Issued by NWS St Louis, MO

Home | Current Version | Previous Version | Text Only | Print | Product List | Glossary On
Versions: 1 2 3 4 5 6 7 8 9 10 11 12 13 14 15 16 17 18 19 20 21 22 23 24 25 26 27 28
000
FTUS43 KLSX 180540
TAFSTL
TAF
KSTL 180540Z 1806/1912 29008KT P6SM OVC012
     FM181000 28005KT 5SM BR BKN010
     FM181300 VRB04KT 4SM BR SCT010
     FM181600 22005KT P6SM SCT025
     FM182000 18007KT P6SM SCT120
     FM190100 14005KT P6SM BKN120
     FM190800 VRB04KT 5SM BR BKN035=

USA.gov is the U.S. government's official web portal to all federal, state and local government web resources and services.